Time;durP1;ratioP1;P1;durP2;ratioP2;P2;SDS_P1;SDS_P2;PMS_P1;PMS_P2;Temp;Humidity;BMP_temperature;BMP_pressure;BME280_temperature;BME280_humidity;BME280_pressure;Samples;Min_cycle;Max_cycle;Signal;HPM_P1;HPM_P2
2022/05/13 00:00:07;;;;;;;7.05;5.85;;;;;;;17.53;47.21;95239.31;4964261;28;20230;-73
2022/05/13 00:02:33;;;;;;;7.80;6.25;;;;;;;17.40;47.19;95244.47;4982388;28;20719;-73
2022/05/13 00:05:01;;;;;;;9.27;6.63;;;;;;;17.41;47.43;95240.84;4968694;28;20248;-73
2022/05/13 00:07:26;;;;;;;6.32;5.72;;;;;;;17.39;47.78;95241.00;4960681;28;20225;-73
2022/05/13 00:10:00;;;;;;;8.93;6.30;;;;;;;17.42;47.28;95245.13;4961704;28;20247;-74
2022/05/13 00:12:33;;;;;;;8.32;6.53;;;;;;;17.47;47.37;95250.69;4981743;28;20266;-75
2022/05/13 00:15:03;;;;;;;9.35;6.43;;;;;;;17.26;48.08;95248.00;4974885;28;20251;-74
2022/05/13 00:17:28;;;;;;;10.15;7.07;;;;;;;17.19;48.39;95245.28;4961444;28;20229;-74
2022/05/13 00:19:54;;;;;;;8.63;7.00;;;;;;;17.15;48.52;95241.34;4963104;28;20228;-74
2022/05/13 00:22:20;;;;;;;7.85;6.45;;;;;;;17.17;48.29;95245.47;4964375;28;20228;-74
2022/05/13 00:24:46;;;;;;;6.80;6.10;;;;;;;17.15;47.99;95241.34;4964310;28;20283;-74
2022/05/13 00:27:12;;;;;;;8.70;5.90;;;;;;;17.23;47.93;95246.56;4958644;28;20323;-74
2022/05/13 00:29:37;;;;;;;7.85;6.00;;;;;;;17.31;47.41;95241.13;4966674;28;20225;-73
2022/05/13 00:32:03;;;;;;;8.18;6.22;;;;;;;17.18;47.89;95235.66;4973721;28;20230;-74
2022/05/13 00:34:29;;;;;;;11.57;6.53;;;;;;;16.98;48.58;95243.41;4974910;28;20223;-70
2022/05/13 00:36:55;;;;;;;7.40;5.78;;;;;;;16.94;48.56;95239.47;4963691;28;20236;-73
2022/05/13 00:39:20;;;;;;;7.00;6.22;;;;;;;16.98;48.54;95243.41;4982474;28;20200;-74
2022/05/13 00:41:46;;;;;;;7.85;5.80;;;;;;;16.98;48.12;95246.06;4971490;28;20288;-73
2022/05/13 00:44:12;;;;;;;9.38;5.75;;;;;;;16.82;48.42;95249.75;4957233;28;20651;-73
2022/05/13 00:46:38;;;;;;;8.75;6.13;;;;;;;16.72;48.58;95252.63;4971311;28;20219;-74
2022/05/13 00:49:07;;;;;;;11.98;6.20;;;;;;;16.70;48.68;95249.34;4971755;28;20220;-74
2022/05/13 00:51:36;;;;;;;9.30;6.05;;;;;;;16.67;48.63;95246.25;4972143;28;20686;-74
2022/05/13 00:54:04;;;;;;;7.22;5.82;;;;;;;16.70;48.68;95252.00;4961379;28;20215;-74
2022/05/13 00:56:30;;;;;;;6.18;5.65;;;;;;;16.73;48.35;95250.81;4958874;28;20327;-74
2022/05/13 00:58:59;;;;;;;10.93;6.07;;;;;;;16.78;48.52;95251.09;4961348;28;20236;-74
2022/05/13 01:01:25;;;;;;;8.93;6.18;;;;;;;16.67;48.53;95251.53;4965395;28;20286;-74
2022/05/13 01:03:51;;;;;;;11.15;5.65;;;;;;;16.48;48.93;95243.13;4975301;28;20221;-73
2022/05/13 01:06:23;;;;;;;8.48;6.15;;;;;;;16.50;49.09;95248.25;4970705;28;20294;-74
2022/05/13 01:08:49;;;;;;;9.15;6.53;;;;;;;16.46;49.32;95247.78;4974565;28;20236;-73
2022/05/13 01:11:20;;;;;;;10.48;6.07;;;;;;;16.49;49.48;95251.91;4967345;28;20220;-74
2022/05/13 01:13:48;;;;;;;9.55;6.63;;;;;;;16.49;49.34;95255.41;4963442;28;20242;-73
2022/05/13 01:16:14;;;;;;;8.68;6.20;;;;;;;16.56;49.40;95252.00;4963366;28;20235;-74
2022/05/13 01:18:42;;;;;;;11.48;7.03;;;;;;;16.34;50.07;95249.25;4964900;28;20219;-72
2022/05/13 01:21:10;;;;;;;12.13;6.88;;;;;;;16.45;49.91;95247.97;4966498;28;20208;-71
2022/05/13 01:23:40;;;;;;;8.38;6.47;;;;;;;16.38;50.32;95252.34;4962254;28;20267;-70
2022/05/13 01:26:12;;;;;;;10.60;6.38;;;;;;;16.33;50.08;95250.25;4962786;28;20227;-72
2022/05/13 01:28:46;;;;;;;8.32;6.70;;;;;;;16.24;50.07;95236.25;4961804;28;20691;-71
2022/05/13 01:31:14;;;;;;;12.23;7.32;;;;;;;16.23;50.39;95247.06;4979929;28;20232;-71
2022/05/13 01:33:41;;;;;;;8.68;6.43;;;;;;;16.35;50.23;95239.47;4978980;28;20291;-72
2022/05/13 01:36:09;;;;;;;10.15;7.18;;;;;;;16.43;50.04;95237.53;4978322;28;20266;-71
2022/05/13 01:38:37;;;;;;;9.90;6.78;;;;;;;16.37;50.57;95237.44;4972069;28;20253;-71
2022/05/13 01:41:05;;;;;;;10.57;7.22;;;;;;;16.36;50.37;95235.78;4966662;28;20236;-71
2022/05/13 01:43:32;;;;;;;12.10;7.45;;;;;;;16.27;50.57;95225.25;4974374;28;20234;-72
2022/05/13 01:45:58;;;;;;;9.63;6.57;;;;;;;16.16;51.08;95240.81;4968981;28;20228;-71
2022/05/13 01:48:25;;;;;;;8.23;6.82;;;;;;;15.99;51.50;95226.88;4968610;28;20218;-71
2022/05/13 01:50:50;;;;;;;7.43;6.70;;;;;;;15.98;51.56;95218.06;4988161;28;20252;-71
2022/05/13 01:53:16;;;;;;;7.53;6.68;;;;;;;15.87;51.85;95223.81;4979741;28;20225;-71
2022/05/13 01:55:45;;;;;;;8.45;7.15;;;;;;;15.98;51.13;95220.72;4975369;28;20238;-71
2022/05/13 01:58:12;;;;;;;7.90;6.78;;;;;;;15.93;51.39;95217.81;4976497;28;20243;-73
2022/05/13 02:00:38;;;;;;;11.73;7.07;;;;;;;15.80;52.09;95209.66;4967663;28;20207;-71
2022/05/13 02:05:48;;;;;;;7.53;6.85;;;;;;;15.90;52.03;95228.75;4964257;28;20315;-72
2022/05/13 02:08:13;;;;;;;7.50;6.80;;;;;;;15.97;52.48;95226.22;4974057;28;20307;-72
2022/05/13 02:10:38;;;;;;;9.65;6.70;;;;;;;15.99;52.45;95227.69;4980369;28;20224;-72
2022/05/13 02:13:04;;;;;;;8.00;7.18;;;;;;;15.75;53.20;95223.44;4981347;28;20223;-73
2022/05/13 02:15:30;;;;;;;8.13;7.13;;;;;;;15.69;53.32;95226.81;4986021;28;20193;-73
2022/05/13 02:17:56;;;;;;;8.23;7.28;;;;;;;15.57;53.75;95226.34;4964799;28;20320;-72
2022/05/13 02:20:21;;;;;;;7.88;7.15;;;;;;;15.51;54.00;95229.72;4957014;28;20221;-72
2022/05/13 02:22:47;;;;;;;9.23;7.85;;;;;;;15.51;54.31;95231.56;4962794;28;20535;-72
2022/05/13 02:25:13;;;;;;;9.43;8.10;;;;;;;15.53;54.47;95237.47;4962913;28;20224;-73
2022/05/13 02:27:38;;;;;;;7.88;7.07;;;;;;;15.36;54.75;95234.94;4982850;28;20326;-72
2022/05/13 02:30:05;;;;;;;7.28;6.45;;;;;;;15.38;54.67;95240.09;4977813;28;20209;-72
2022/05/13 02:32:31;;;;;;;10.68;6.88;;;;;;;15.47;54.28;95246.16;4984187;28;20223;-72
2022/05/13 02:34:56;;;;;;;7.50;6.80;;;;;;;15.41;54.66;95248.50;4973327;28;20230;-71
2022/05/13 02:37:22;;;;;;;9.40;7.43;;;;;;;15.40;54.45;95252.16;4981535;28;20319;-71
2022/05/13 02:39:47;;;;;;;7.40;6.65;;;;;;;15.46;54.15;95245.31;4963828;28;20224;-71
2022/05/13 02:42:14;;;;;;;8.57;7.00;;;;;;;15.33;54.27;95251.19;4975294;28;20193;-71
2022/05/13 02:44:41;;;;;;;7.28;6.57;;;;;;;15.30;54.71;95246.25;4971919;28;20223;-71
2022/05/13 02:47:06;;;;;;;9.57;6.93;;;;;;;15.25;54.66;95248.59;4975407;28;20220;-71
2022/05/13 02:49:32;;;;;;;8.90;6.80;;;;;;;15.20;54.37;95254.41;4988124;28;20216;-73
2022/05/13 02:51:58;;;;;;;10.13;7.35;;;;;;;15.22;54.01;95248.97;4983196;28;20326;-72
2022/05/13 02:54:23;;;;;;;8.05;7.07;;;;;;;15.20;54.23;95256.25;4982904;28;20291;-72
2022/05/13 02:56:48;;;;;;;8.07;6.45;;;;;;;15.16;54.48;95247.84;4967441;28;20230;-72
2022/05/13 02:59:14;;;;;;;8.32;6.53;;;;;;;15.24;54.08;95251.44;4982993;28;20248;-72
2022/05/13 03:01:39;;;;;;;7.53;6.72;;;;;;;15.15;54.67;95251.47;4964047;28;20557;-72
2022/05/13 03:04:05;;;;;;;10.80;6.78;;;;;;;14.97;55.38;95250.94;4966282;28;20262;-72
2022/05/13 03:06:30;;;;;;;8.32;7.50;;;;;;;15.02;55.14;95253.84;4978591;28;20204;-72
2022/05/13 03:08:56;;;;;;;10.85;6.93;;;;;;;15.06;55.00;95249.06;4973352;28;20216;-72
2022/05/13 03:11:22;;;;;;;11.38;7.60;;;;;;;14.98;55.07;95234.84;4979402;28;20212;-71
2022/05/13 03:13:51;;;;;;;12.43;7.30;;;;;;;15.09;54.58;95248.69;4968230;28;20251;-71
2022/05/13 03:16:19;;;;;;;11.07;7.18;;;;;;;14.94;54.96;95246.78;4978416;28;20216;-72
2022/05/13 03:18:46;;;;;;;8.27;6.45;;;;;;;15.07;54.65;95255.97;4973968;28;20255;-71
2022/05/13 03:21:12;;;;;;;9.65;7.32;;;;;;;15.00;54.90;95255.88;4981667;28;20213;-72
2022/05/13 03:23:42;;;;;;;13.68;7.03;;;;;;;14.85;54.62;95247.81;4962065;28;20582;-72
2022/05/13 03:26:08;;;;;;;9.43;6.82;;;;;;;14.74;54.09;95258.78;4967653;28;20255;-72
2022/05/13 03:28:33;;;;;;;11.23;6.65;;;;;;;14.80;54.16;95258.09;4972084;28;20216;-72
2022/05/13 03:30:59;;;;;;;7.35;6.15;;;;;;;14.96;53.73;95260.66;4966123;28;20319;-72
2022/05/13 03:33:24;;;;;;;8.90;6.75;;;;;;;15.08;53.20;95257.66;4972656;28;20338;-72
2022/05/13 03:35:50;;;;;;;9.55;6.53;;;;;;;15.17;53.25;95264.53;4976526;28;20258;-72
2022/05/13 03:38:16;;;;;;;11.40;6.95;;;;;;;15.18;53.91;95267.03;4974772;28;20236;-72
2022/05/13 03:40:41;;;;;;;8.23;6.78;;;;;;;14.95;54.97;95264.31;4963944;28;20227;-71
2022/05/13 03:43:07;;;;;;;14.18;7.60;;;;;;;15.03;54.93;95271.41;4963254;28;20299;-71
2022/05/13 03:45:36;;;;;;;8.15;6.90;;;;;;;15.07;54.98;95266.59;4968135;28;20218;-71
2022/05/13 03:48:03;;;;;;;9.73;6.82;;;;;;;15.00;55.09;95258.53;4960376;28;20195;-72
2022/05/13 03:50:29;;;;;;;11.13;7.80;;;;;;;15.15;54.84;95266.53;4957471;28;20258;-72
2022/05/13 03:52:54;;;;;;;8.38;7.30;;;;;;;15.05;54.80;95263.28;4955679;28;20236;-71
2022/05/13 03:55:20;;;;;;;13.82;7.18;;;;;;;14.94;54.73;95267.97;4977400;28;20256;-71
2022/05/13 03:57:45;;;;;;;15.65;7.57;;;;;;;14.97;54.75;95277.41;4971678;28;20216;-71
2022/05/13 04:00:13;;;;;;;8.68;7.75;;;;;;;15.07;54.33;95283.28;4973295;28;20203;-71
2022/05/13 04:02:39;;;;;;;12.20;7.53;;;;;;;15.18;54.40;95293.53;4973076;28;20232;-67
2022/05/13 04:10:37;;;;;;;13.45;7.68;;;;;;;15.16;54.77;95295.50;4961105;28;20390;-70
2022/05/13 04:18:37;;;;;;;12.43;7.05;;;;;;;15.35;54.01;95296.91;4975204;28;20230;-70
2022/05/13 04:21:06;;;;;;;10.18;7.35;;;;;;;15.45;53.06;95302.00;4979230;28;20213;-74
2022/05/13 04:23:34;;;;;;;9.85;7.28;;;;;;;15.39;52.71;95298.19;4957786;28;20228;-72
2022/05/13 04:25:59;;;;;;;8.98;7.10;;;;;;;15.63;51.04;95293.75;4960167;28;20224;-70
2022/05/13 04:28:25;;;;;;;9.35;7.60;;;;;;;15.70;50.15;95293.91;4963549;28;20235;-71
2022/05/13 04:30:51;;;;;;;7.65;6.85;;;;;;;15.60;51.45;95304.69;4963391;28;20672;-71
2022/05/13 04:33:17;;;;;;;7.35;6.65;;;;;;;15.58;52.06;95302.25;4969197;28;20314;-73
2022/05/13 04:35:42;;;;;;;11.32;7.30;;;;;;;15.72;52.39;95303.34;4974455;28;20288;-71
2022/05/13 04:38:08;;;;;;;12.30;7.32;;;;;;;15.75;52.63;95308.28;4973039;28;20315;-72
2022/05/13 04:40:33;;;;;;;9.65;7.70;;;;;;;15.81;53.05;95304.09;4956569;28;20243;-72
2022/05/13 04:43:00;;;;;;;11.18;7.70;;;;;;;15.86;52.77;95305.22;4979890;28;20252;-73
2022/05/13 04:45:29;;;;;;;12.95;8.88;;;;;;;15.93;52.18;95307.13;4978781;28;20228;-74
2022/05/13 04:48:26;;;;;;;9.40;7.38;;;;;;;15.90;52.05;95312.81;4969363;28;20224;-73
2022/05/13 04:51:00;;;;;;;11.73;7.50;;;;;;;15.78;52.07;95318.53;4967441;28;20221;-72
2022/05/13 04:53:29;;;;;;;12.48;8.25;;;;;;;15.98;51.25;95312.75;4963211;28;20278;-74
2022/05/13 04:55:56;;;;;;;10.18;7.88;;;;;;;16.07;50.65;95309.03;4963242;28;20318;-73
2022/05/13 04:58:22;;;;;;;10.52;7.57;;;;;;;16.13;49.89;95313.63;4956263;28;20326;-74
2022/05/13 05:00:49;;;;;;;9.70;7.47;;;;;;;16.27;49.34;95312.00;4966258;28;20213;-73
2022/05/13 05:03:16;;;;;;;7.97;6.70;;;;;;;16.28;49.48;95311.84;4970572;28;20243;-74
2022/05/13 05:05:43;;;;;;;8.27;6.97;;;;;;;16.38;49.48;95308.91;4962407;28;20671;-73
2022/05/13 05:08:12;;;;;;;9.68;7.57;;;;;;;16.36;49.77;95310.09;4962573;28;20279;-73
2022/05/13 05:10:39;;;;;;;13.23;7.82;;;;;;;16.57;48.76;95312.88;4973600;28;20255;-72
2022/05/13 05:13:07;;;;;;;13.77;7.10;;;;;;;16.53;48.95;95316.91;4965716;28;20239;-74
2022/05/13 05:15:34;;;;;;;12.85;8.15;;;;;;;16.60;48.56;95328.47;4974495;28;20211;-72
2022/05/13 05:18:00;;;;;;;9.07;7.45;;;;;;;16.75;48.43;95326.63;4962178;28;20220;-74
2022/05/13 05:20:25;;;;;;;8.93;6.88;;;;;;;16.60;48.46;95323.16;4967867;28;20584;-73
2022/05/13 05:22:51;;;;;;;13.35;7.97;;;;;;;16.76;48.58;95322.97;4965148;28;20224;-73
2022/05/13 05:25:19;;;;;;;12.70;6.78;;;;;;;16.86;47.75;95312.09;4976313;28;20235;-73
2022/05/13 05:27:45;;;;;;;12.18;7.20;;;;;;;16.85;47.24;95315.78;4970600;28;20196;-73
2022/05/13 05:30:12;;;;;;;9.38;7.72;;;;;;;16.84;47.01;95321.25;4955164;28;20212;-74
2022/05/13 05:32:38;;;;;;;8.23;7.45;;;;;;;16.91;46.25;95324.84;4954562;28;20243;-73
2022/05/13 05:35:07;;;;;;;11.75;6.70;;;;;;;17.07;46.62;95321.97;4939341;28;20258;-73
2022/05/13 05:37:33;;;;;;;8.07;6.55;;;;;;;16.58;46.50;95332.31;4944805;28;20252;-72
2022/05/13 05:39:59;;;;;;;10.88;6.63;;;;;;;16.69;46.68;95329.19;4944649;28;20231;-70
2022/05/13 05:42:24;;;;;;;6.30;5.70;;;;;;;16.82;45.86;95326.75;4975906;28;20203;-70
2022/05/13 05:44:53;;;;;;;12.20;6.78;;;;;;;16.96;45.38;95315.31;4979470;28;20239;-69
2022/05/13 05:47:23;;;;;;;9.95;6.35;;;;;;;17.12;45.47;95321.44;4962797;28;20267;-72
2022/05/13 05:49:49;;;;;;;7.28;6.57;;;;;;;17.22;45.86;95315.84;4961416;28;20240;-73
2022/05/13 05:52:14;;;;;;;7.43;6.10;;;;;;;17.23;46.14;95326.28;4961410;28;20233;-73
2022/05/13 05:57:24;;;;;;;9.77;5.82;;;;;;;17.36;45.35;95307.03;4959661;28;20353;-72
2022/05/13 05:59:50;;;;;;;8.73;6.38;;;;;;;17.37;45.45;95309.50;4960005;28;20263;-71
2022/05/13 06:02:17;;;;;;;8.27;5.80;;;;;;;17.47;44.52;95313.69;4973900;28;20217;-72
2022/05/13 06:04:42;;;;;;;8.73;5.88;;;;;;;17.48;43.80;95310.00;4962796;28;20231;-72
2022/05/13 06:07:11;;;;;;;7.30;5.22;;;;;;;17.54;43.51;95310.09;4961745;28;20224;-72
2022/05/13 06:09:38;;;;;;;6.90;5.68;;;;;;;17.65;43.30;95308.78;4973983;28;20205;-72
2022/05/13 06:12:07;;;;;;;6.18;5.65;;;;;;;17.71;43.57;95305.34;4960946;28;20283;-71
2022/05/13 06:14:33;;;;;;;7.93;5.15;;;;;;;17.81;43.56;95310.41;4965822;28;20228;-70
2022/05/13 06:16:58;;;;;;;8.77;6.15;;;;;;;17.87;43.19;95309.66;4962748;28;20243;-71
2022/05/13 06:19:25;;;;;;;11.85;6.78;;;;;;;17.94;43.62;95305.22;4959759;28;20232;-70
2022/05/13 06:21:51;;;;;;;9.70;6.63;;;;;;;17.97;43.70;95301.34;4951520;28;20303;-70
2022/05/13 06:24:18;;;;;;;9.63;6.07;;;;;;;17.98;43.94;95303.81;4977277;28;20244;-74
2022/05/13 06:26:49;;;;;;;10.57;6.85;;;;;;;18.03;43.92;95297.91;4965542;28;20255;-71
2022/05/13 06:29:20;;;;;;;14.13;8.77;;;;;;;18.15;43.57;95303.53;4971052;28;20248;-71
2022/05/13 06:31:46;;;;;;;10.82;9.35;;;;;;;18.20;43.52;95301.13;4960717;28;20230;-69
2022/05/13 06:34:12;;;;;;;7.50;6.15;;;;;;;18.22;43.38;95297.25;4961754;28;20310;-72
2022/05/13 06:36:38;;;;;;;8.10;7.05;;;;;;;18.29;43.47;95295.50;4972773;28;20306;-71
2022/05/13 06:39:05;;;;;;;7.65;6.72;;;;;;;18.41;43.50;95290.44;4978596;28;20235;-69
2022/05/13 06:41:31;;;;;;;7.30;6.22;;;;;;;18.44;43.14;95295.41;4974551;28;20246;-70
2022/05/13 06:43:57;;;;;;;7.78;5.90;;;;;;;18.48;43.12;95291.31;4963660;28;20323;-71
2022/05/13 06:46:22;;;;;;;7.53;6.10;;;;;;;18.38;42.35;95288.19;4971721;28;20238;-70
2022/05/13 06:48:48;;;;;;;8.88;5.63;;;;;;;18.46;42.00;95290.69;4962436;28;20246;-71
2022/05/13 06:51:16;;;;;;;8.38;5.78;;;;;;;18.51;42.08;95296.25;4964004;28;20247;-71
2022/05/13 06:53:41;;;;;;;7.78;5.80;;;;;;;18.57;42.50;95291.19;4957685;28;20350;-69
2022/05/13 06:56:07;;;;;;;11.35;6.80;;;;;;;18.63;43.35;95282.41;4980252;28;20235;-73
2022/05/13 06:58:32;;;;;;;10.02;6.03;;;;;;;18.67;43.68;95278.34;4971142;28;20243;-69
2022/05/13 07:00:58;;;;;;;8.55;5.97;;;;;;;18.70;43.29;95281.44;4974472;28;20228;-71
2022/05/13 07:03:23;;;;;;;7.40;6.57;;;;;;;18.78;42.49;95280.50;4965592;28;20213;-71
2022/05/13 07:05:49;;;;;;;12.50;6.95;;;;;;;18.86;42.36;95275.00;4976915;28;20228;-71
2022/05/13 07:08:15;;;;;;;15.25;7.65;;;;;;;18.87;43.12;95270.47;4966166;28;20222;-71
2022/05/13 07:10:42;;;;;;;9.35;7.10;;;;;;;18.90;43.36;95270.94;4968839;28;20312;-70
2022/05/13 07:13:09;;;;;;;12.80;7.70;;;;;;;19.01;43.47;95266.06;4957294;28;20228;-60
2022/05/13 07:15:34;;;;;;;13.73;8.27;;;;;;;19.12;43.07;95258.31;4972777;28;20211;-62
2022/05/13 07:18:00;;;;;;;12.50;8.75;;;;;;;19.04;43.14;95274.47;4967790;28;20626;-61
2022/05/13 07:20:27;;;;;;;13.73;8.35;;;;;;;18.96;42.88;95266.66;4962042;28;20228;-62
2022/05/13 07:22:56;;;;;;;12.00;7.80;;;;;;;19.04;42.97;95274.47;4956216;28;20223;-61
2022/05/13 07:25:23;;;;;;;13.55;7.78;;;;;;;19.19;43.22;95261.00;4973679;28;20235;-61
2022/05/13 07:27:49;;;;;;;13.13;7.32;;;;;;;19.27;43.39;95262.66;4965322;28;20240;-61
2022/05/13 07:30:15;;;;;;;11.52;7.35;;;;;;;19.34;42.65;95261.69;4964188;28;20205;-61
2022/05/13 07:32:40;;;;;;;10.02;7.00;;;;;;;19.45;42.35;95264.78;4969906;28;20746;-61
2022/05/13 07:35:08;;;;;;;9.85;7.03;;;;;;;19.23;41.48;95261.44;4966812;28;20225;-61
2022/05/13 07:37:34;;;;;;;9.05;6.93;;;;;;;19.35;41.70;95265.16;4969092;28;20228;-62
2022/05/13 07:42:43;;;;;;;8.10;6.13;;;;;;;19.52;41.77;95252.31;4969153;28;20290;-61
2022/05/13 07:45:09;;;;;;;8.80;6.53;;;;;;;19.66;41.80;95255.81;4974034;28;20220;-61
2022/05/13 07:47:35;;;;;;;10.27;7.13;;;;;;;19.74;41.99;95251.13;4965514;28;20217;-62
2022/05/13 07:50:02;;;;;;;11.23;7.65;;;;;;;19.80;42.30;95247.66;4966631;28;20238;-61
2022/05/13 07:52:27;;;;;;;10.40;6.88;;;;;;;19.93;42.25;95252.19;4964355;28;20592;-61
2022/05/13 07:54:53;;;;;;;11.27;6.53;;;;;;;19.96;42.10;95242.94;4961557;28;20234;-62
2022/05/13 07:57:18;;;;;;;11.95;6.68;;;;;;;19.96;41.86;95240.28;4965219;28;20216;-62
2022/05/13 08:02:28;;;;;;;11.70;6.55;;;;;;;20.21;40.93;95237.84;4965508;28;20247;-61
2022/05/13 08:04:53;;;;;;;13.35;6.68;;;;;;;20.30;40.55;95238.44;4957229;28;20236;-62
2022/05/13 08:07:19;;;;;;;12.27;6.88;;;;;;;20.28;40.42;95236.78;4968613;28;20247;-63
2022/05/13 08:09:44;;;;;;;12.25;7.05;;;;;;;20.27;40.23;95237.00;4967227;28;20251;-62
2022/05/13 08:12:10;;;;;;;11.73;6.78;;;;;;;20.21;40.62;95236.00;4970262;28;20204;-62
2022/05/13 08:14:35;;;;;;;9.07;6.70;;;;;;;20.33;40.35;95232.69;4967124;28;20220;-62
2022/05/13 08:17:01;;;;;;;15.77;7.28;;;;;;;20.42;39.94;95224.25;4958245;28;20225;-64
2022/05/13 08:19:26;;;;;;;13.63;6.80;;;;;;;20.43;40.82;95228.56;4971354;28;20236;-64
2022/05/13 08:21:52;;;;;;;16.02;7.13;;;;;;;20.46;40.14;95224.66;4958543;28;20228;-63
2022/05/13 08:24:17;;;;;;;13.25;6.93;;;;;;;20.53;41.18;95217.47;4976292;28;20638;-63
2022/05/13 08:26:42;;;;;;;8.68;6.53;;;;;;;20.59;40.91;95213.97;4967181;28;20287;-60
2022/05/13 08:29:08;;;;;;;9.30;6.40;;;;;;;20.64;41.06;95211.50;4974571;28;20232;-60
2022/05/13 08:31:34;;;;;;;8.25;6.65;;;;;;;20.81;42.28;95213.72;4966979;28;20263;-62
2022/05/13 08:33:59;;;;;;;8.95;6.90;;;;;;;20.88;41.15;95217.19;4966691;28;20228;-60
2022/05/13 08:36:25;;;;;;;13.52;8.13;;;;;;;20.89;40.34;95214.28;4963376;28;20328;-63
2022/05/13 08:38:50;;;;;;;12.73;7.80;;;;;;;20.81;40.13;95201.16;4962697;28;20343;-62
2022/05/13 08:41:34;;;;;;;8.88;6.85;;;;;;;20.83;38.53;95206.31;4959511;28;20231;-62
2022/05/13 08:44:04;;;;;;;9.05;6.43;;;;;;;20.84;39.30;95198.06;4957024;28;20236;-63
2022/05/13 08:46:40;;;;;;;12.48;7.05;;;;;;;20.84;38.88;95205.28;4968354;28;20228;-62
2022/05/13 08:49:08;;;;;;;9.75;6.43;;;;;;;20.90;39.70;95193.72;4975870;28;20232;-62
2022/05/13 08:52:03;;;;;;;10.60;6.18;;;;;;;21.01;41.18;95194.91;4961802;28;20198;-61
2022/05/13 08:54:37;;;;;;;9.75;5.82;;;;;;;21.10;40.91;95201.69;4983156;28;20302;-60
2022/05/13 08:57:10;;;;;;;6.57;5.85;;;;;;;21.18;39.43;95189.94;4969160;28;20257;-63
2022/05/13 09:00:10;;;;;;;11.05;5.55;;;;;;;21.21;40.34;95192.16;4973635;28;20943;-63
2022/05/13 09:02:40;;;;;;;8.15;5.85;;;;;;;21.23;40.94;95185.56;4933311;29;20301;-63
2022/05/13 09:05:22;;;;;;;8.10;5.88;;;;;;;21.20;40.70;95186.00;4929378;29;20257;-64
2022/05/13 09:07:51;;;;;;;7.43;5.55;;;;;;;21.29;38.59;95175.88;4926976;29;20232;-60
2022/05/13 09:10:17;;;;;;;10.50;5.88;;;;;;;21.37;39.96;95178.28;4909310;29;20369;-61
2022/05/13 09:12:50;;;;;;;7.00;5.63;;;;;;;21.52;36.75;95178.84;4916900;29;20230;-61
2022/05/13 09:15:22;;;;;;;6.93;5.30;;;;;;;21.50;37.77;95175.56;4926081;29;20209;-62
2022/05/13 09:18:08;;;;;;;6.72;5.40;;;;;;;21.54;37.64;95173.25;4923766;29;20240;-61
2022/05/13 09:20:50;;;;;;;8.52;6.10;;;;;;;21.64;37.07;95162.09;4907742;29;20260;-66
2022/05/13 09:23:17;;;;;;;8.52;5.57;;;;;;;21.83;40.23;95173.69;4925075;29;20876;-65
2022/05/13 09:26:13;;;;;;;10.35;5.80;;;;;;;21.98;35.97;95160.81;4931396;29;20398;-65
2022/05/13 09:29:03;;;;;;;6.97;5.47;;;;;;;22.08;36.43;95171.00;4891211;29;20234;-64
2022/05/13 09:31:31;;;;;;;7.43;5.88;;;;;;;22.22;37.41;95154.63;4880207;29;20242;-66
2022/05/13 09:33:56;;;;;;;6.85;5.53;;;;;;;22.29;36.80;95146.50;4874360;29;20317;-66
2022/05/13 09:36:21;;;;;;;9.38;5.55;;;;;;;22.43;36.01;95147.22;4897828;29;20321;-65
2022/05/13 09:38:48;;;;;;;8.00;5.32;;;;;;;22.55;34.44;95144.63;4914565;29;20237;-65
2022/05/13 09:41:24;;;;;;;7.13;5.13;;;;;;;22.68;35.74;95133.75;4922883;28;20391;-64
2022/05/13 09:43:55;;;;;;;10.85;7.10;;;;;;;22.81;35.90;95133.59;4926995;28;20236;-69
2022/05/13 09:46:38;;;;;;;7.45;5.65;;;;;;;22.90;34.90;95123.38;4927694;28;20237;-71
2022/05/13 09:49:11;;;;;;;6.93;5.90;;;;;;;22.96;34.17;95121.63;4925041;28;20235;-67
2022/05/13 09:51:49;;;;;;;9.40;6.03;;;;;;;22.98;34.84;95115.03;4922295;28;20205;-67
2022/05/13 09:54:34;;;;;;;13.45;7.78;;;;;;;23.17;34.48;95110.44;4930192;28;20205;-66
2022/05/13 09:57:14;;;;;;;8.13;7.18;;;;;;;23.35;33.24;95109.56;4923027;28;20228;-71
2022/05/13 09:59:53;;;;;;;8.02;5.93;;;;;;;23.50;31.63;95109.97;4926756;28;20244;-70
2022/05/13 10:02:23;;;;;;;7.15;5.22;;;;;;;23.55;31.94;95102.06;4929434;28;20227;-72
2022/05/13 10:04:51;;;;;;;9.07;7.18;;;;;;;23.76;30.58;95106.09;4947960;28;20235;-71
2022/05/13 10:07:19;;;;;;;15.48;11.32;;;;;;;23.84;30.67;95098.72;4968703;28;20243;-71
2022/05/13 10:15:27;;;;;;;6.28;5.05;;;;;;;24.14;29.98;95086.00;4963407;28;20287;-68
2022/05/13 10:18:00;;;;;;;3.80;3.42;;;;;;;24.31;28.23;95075.34;4966581;28;20236;-69
2022/05/13 10:20:30;;;;;;;7.90;5.28;;;;;;;24.36;29.78;95074.66;4973259;28;20240;-67
2022/05/13 10:23:10;;;;;;;4.88;3.35;;;;;;;24.47;29.53;95071.16;4965314;28;20225;-68
2022/05/13 10:25:57;;;;;;;20.73;16.45;;;;;;;24.56;30.35;95069.72;4982616;28;20224;-65
2022/05/13 10:28:31;;;;;;;8.02;6.80;;;;;;;24.75;30.63;95075.75;4961558;28;20225;-67
2022/05/13 10:31:14;;;;;;;6.88;4.65;;;;;;;24.92;29.72;95073.13;4959219;28;20312;-69
2022/05/13 10:34:09;;;;;;;8.70;7.00;;;;;;;25.07;30.13;95078.78;4954124;28;20225;-69
2022/05/13 10:36:50;;;;;;;5.95;5.35;;;;;;;25.07;29.46;95072.56;4951390;28;20236;-73
2022/05/13 10:39:24;;;;;;;18.63;14.52;;;;;;;25.19;30.68;95075.25;4962162;28;20252;-67
2022/05/13 10:41:58;;;;;;;4.65;4.18;;;;;;;25.05;27.71;95067.44;4963020;28;20510;-65
2022/05/13 10:44:33;;;;;;;7.10;4.00;;;;;;;25.06;27.93;95062.88;4953734;28;20267;-64
2022/05/13 10:47:08;;;;;;;9.07;6.95;;;;;;;25.19;29.99;95059.91;4962311;28;20336;-62
2022/05/13 10:49:38;;;;;;;5.82;5.22;;;;;;;25.32;27.55;95058.81;4957346;28;20236;-63
2022/05/13 10:52:25;;;;;;;5.57;4.63;;;;;;;25.43;29.13;95057.91;4961121;28;20241;-63
2022/05/13 10:55:00;;;;;;;5.85;5.00;;;;;;;25.63;29.45;95049.34;4943410;28;20232;-62
2022/05/13 10:57:54;;;;;;;7.95;6.88;;;;;;;25.84;28.59;95047.00;4949749;28;20364;-62
2022/05/13 11:00:29;;;;;;;9.15;5.03;;;;;;;26.02;27.93;95045.94;4971429;28;20243;-63
2022/05/13 11:03:14;;;;;;;8.55;5.82;;;;;;;26.18;28.44;95039.69;4971186;28;20282;-62
2022/05/13 11:06:06;;;;;;;8.25;4.53;;;;;;;26.29;27.97;95029.84;4964059;28;20234;-62
2022/05/13 11:08:40;;;;;;;6.43;5.50;;;;;;;26.32;28.25;95024.75;4964037;28;20221;-63
2022/05/13 11:11:29;;;;;;;4.03;3.72;;;;;;;26.54;28.18;95032.91;4972968;28;20228;-71
2022/05/13 11:13:58;;;;;;;5.97;4.68;;;;;;;26.60;27.80;95021.09;4983606;28;20232;-67
2022/05/13 11:16:41;;;;;;;6.22;4.25;;;;;;;26.75;26.94;95019.63;4971128;28;20224;-66
2022/05/13 11:19:19;;;;;;;4.65;4.10;;;;;;;26.74;27.06;95016.13;4963562;28;20759;-62
2022/05/13 11:21:57;;;;;;;5.93;5.38;;;;;;;26.79;28.17;95018.88;4955535;28;20204;-62
2022/05/13 11:27:28;;;;;;;7.93;5.38;;;;;;;26.86;26.15;95009.78;4953562;28;20227;-63
2022/05/13 11:30:07;;;;;;;5.68;4.25;;;;;;;26.88;26.50;94996.84;4983112;28;20228;-62
2022/05/13 11:32:51;;;;;;;4.07;3.45;;;;;;;26.82;25.77;95004.88;4972612;28;20240;-67
2022/05/13 11:35:40;;;;;;;4.88;3.85;;;;;;;26.87;25.39;94990.66;4980221;28;20318;-61
2022/05/13 11:38:33;;;;;;;6.63;4.07;;;;;;;27.12;26.42;94987.38;4970931;28;20286;-65
2022/05/13 11:41:08;;;;;;;6.55;4.30;;;;;;;27.43;26.01;94996.59;4976067;28;20227;-65
2022/05/13 11:43:46;;;;;;;5.10;3.88;;;;;;;27.40;24.93;94989.00;4978919;28;20222;-70
2022/05/13 11:46:32;;;;;;;6.68;3.63;;;;;;;27.33;24.81;94984.88;4980519;28;20215;-70
2022/05/13 11:49:29;;;;;;;6.68;4.70;;;;;;;27.30;24.70;94982.69;4983659;28;20278;-71
2022/05/13 11:52:02;;;;;;;5.80;4.32;;;;;;;27.60;25.96;94971.31;4970631;28;21119;-71
2022/05/13 11:54:29;;;;;;;4.10;3.80;;;;;;;27.62;24.89;94977.28;4960862;28;20281;-71
2022/05/13 11:57:17;;;;;;;4.32;3.50;;;;;;;27.90;24.95;94974.22;4956707;28;20224;-69
2022/05/13 11:59:45;;;;;;;5.70;4.05;;;;;;;28.00;24.47;94968.06;4962095;28;20236;-72
2022/05/13 12:02:13;;;;;;;4.93;3.80;;;;;;;28.15;24.38;94954.63;4973000;28;20235;-70
2022/05/13 12:05:04;;;;;;;5.13;3.50;;;;;;;28.21;24.00;94954.66;4971080;28;20240;-68
2022/05/13 12:07:32;;;;;;;6.82;3.92;;;;;;;28.50;24.69;94961.28;4974014;28;20221;-68
2022/05/13 12:10:04;;;;;;;4.63;3.90;;;;;;;28.68;23.10;94951.88;4961551;28;20764;-68
2022/05/13 12:13:05;;;;;;;4.68;3.47;;;;;;;28.83;22.64;94955.69;4950028;28;20220;-70